sensor_id;sensor_type;location;lat;lon;timestamp;pressure;altitude;pressure_sealevel;temperature
71807;BMP280;59655;42.590;23.364;2022-12-18T00:00:48;92110.25;;;7.91
71807;BMP280;59655;42.590;23.364;2022-12-18T00:03:14;92108.75;;;7.96
71807;BMP280;59655;42.590;23.364;2022-12-18T00:05:51;92120.28;;;7.93
71807;BMP280;59655;42.590;23.364;2022-12-18T00:08:18;92118.75;;;7.60
71807;BMP280;59655;42.590;23.364;2022-12-18T00:10:48;92118.19;;;7.42
71807;BMP280;59655;42.590;23.364;2022-12-18T00:13:36;92125.03;;;7.32
71807;BMP280;59655;42.590;23.364;2022-12-18T00:16:07;92125.28;;;7.28
71807;BMP280;59655;42.590;23.364;2022-12-18T00:18:33;92129.59;;;7.31
71807;BMP280;59655;42.590;23.364;2022-12-18T00:21:03;92125.19;;;7.40
71807;BMP280;59655;42.590;23.364;2022-12-18T00:23:29;92143.75;;;7.59
71807;BMP280;59655;42.590;23.364;2022-12-18T00:26:00;92141.34;;;7.80
71807;BMP280;59655;42.590;23.364;2022-12-18T00:28:25;92152.06;;;7.87
71807;BMP280;59655;42.590;23.364;2022-12-18T00:31:03;92142.34;;;7.77
71807;BMP280;59655;42.590;23.364;2022-12-18T00:33:29;92148.63;;;7.24
71807;BMP280;59655;42.590;23.364;2022-12-18T00:36:07;92158.97;;;7.47
71807;BMP280;59655;42.590;23.364;2022-12-18T00:38:36;92151.47;;;7.26
71807;BMP280;59655;42.590;23.364;2022-12-18T00:41:01;92152.34;;;7.35
71807;BMP280;59655;42.590;23.364;2022-12-18T00:43:27;92149.94;;;7.37
71807;BMP280;59655;42.590;23.364;2022-12-18T00:45:53;92157.16;;;7.36
71807;BMP280;59655;42.590;23.364;2022-12-18T00:48:18;92155.59;;;7.46
71807;BMP280;59655;42.590;23.364;2022-12-18T00:50:44;92150.53;;;7.48
71807;BMP280;59655;42.590;23.364;2022-12-18T00:53:10;92154.28;;;7.34
71807;BMP280;59655;42.590;23.364;2022-12-18T00:55:41;92153.09;;;7.29
71807;BMP280;59655;42.590;23.364;2022-12-18T00:58:14;92161.91;;;7.13
71807;BMP280;59655;42.590;23.364;2022-12-18T01:00:40;92164.16;;;7.28
71807;BMP280;59655;42.590;23.364;2022-12-18T01:03:05;92166.63;;;7.20
71807;BMP280;59655;42.590;23.364;2022-12-18T01:05:31;92163.66;;;7.29
71807;BMP280;59655;42.590;23.364;2022-12-18T01:07:57;92157.78;;;7.42
71807;BMP280;59655;42.590;23.364;2022-12-18T01:10:24;92162.06;;;6.90
71807;BMP280;59655;42.590;23.364;2022-12-18T01:12:49;92169.59;;;7.11
71807;BMP280;59655;42.590;23.364;2022-12-18T01:15:15;92168.16;;;7.04
71807;BMP280;59655;42.590;23.364;2022-12-18T01:17:41;92170.78;;;7.10
71807;BMP280;59655;42.590;23.364;2022-12-18T01:20:07;92170.88;;;6.99
71807;BMP280;59655;42.590;23.364;2022-12-18T01:22:33;92175.31;;;7.15
71807;BMP280;59655;42.590;23.364;2022-12-18T01:25:00;92173.53;;;6.99
71807;BMP280;59655;42.590;23.364;2022-12-18T01:27:26;92171.41;;;6.91
71807;BMP280;59655;42.590;23.364;2022-12-18T01:29:51;92170.00;;;6.85
71807;BMP280;59655;42.590;23.364;2022-12-18T01:32:17;92178.50;;;6.72
71807;BMP280;59655;42.590;23.364;2022-12-18T01:34:42;92166.50;;;7.07
71807;BMP280;59655;42.590;23.364;2022-12-18T01:37:09;92179.22;;;7.08
71807;BMP280;59655;42.590;23.364;2022-12-18T01:39:37;92171.50;;;7.10
71807;BMP280;59655;42.590;23.364;2022-12-18T01:42:03;92176.03;;;7.16
71807;BMP280;59655;42.590;23.364;2022-12-18T01:44:58;92178.09;;;6.93
71807;BMP280;59655;42.590;23.364;2022-12-18T01:47:33;92179.59;;;7.18
71807;BMP280;59655;42.590;23.364;2022-12-18T01:50:34;92180.28;;;6.88
71807;BMP280;59655;42.590;23.364;2022-12-18T01:53:10;92179.03;;;7.01
71807;BMP280;59655;42.590;23.364;2022-12-18T01:55:50;92188.22;;;6.88
71807;BMP280;59655;42.590;23.364;2022-12-18T01:58:18;92195.03;;;6.73
71807;BMP280;59655;42.590;23.364;2022-12-18T02:00:43;92192.25;;;6.95
71807;BMP280;59655;42.590;23.364;2022-12-18T02:03:11;92189.66;;;6.89
71807;BMP280;59655;42.590;23.364;2022-12-18T02:08:22;92186.38;;;7.08
71807;BMP280;59655;42.590;23.364;2022-12-18T02:11:18;92191.44;;;7.06
71807;BMP280;59655;42.590;23.364;2022-12-18T02:16:45;92196.31;;;6.96
71807;BMP280;59655;42.590;23.364;2022-12-18T02:19:54;92204.25;;;6.90
71807;BMP280;59655;42.590;23.364;2022-12-18T02:28:31;92204.25;;;6.49
71807;BMP280;59655;42.590;23.364;2022-12-18T02:30:59;92207.94;;;6.23
71807;BMP280;59655;42.590;23.364;2022-12-18T02:33:32;92208.09;;;6.42
71807;BMP280;59655;42.590;23.364;2022-12-18T02:36:00;92213.25;;;6.65
71807;BMP280;59655;42.590;23.364;2022-12-18T02:38:28;92214.78;;;6.55
71807;BMP280;59655;42.590;23.364;2022-12-18T02:40:56;92210.75;;;6.42
71807;BMP280;59655;42.590;23.364;2022-12-18T02:43:23;92205.22;;;6.40
71807;BMP280;59655;42.590;23.364;2022-12-18T02:45:59;92215.53;;;6.49
71807;BMP280;59655;42.590;23.364;2022-12-18T02:48:31;92214.25;;;6.62
71807;BMP280;59655;42.590;23.364;2022-12-18T02:51:04;92211.06;;;6.75
71807;BMP280;59655;42.590;23.364;2022-12-18T02:53:56;92224.50;;;6.71
71807;BMP280;59655;42.590;23.364;2022-12-18T02:56:26;92219.28;;;6.60
71807;BMP280;59655;42.590;23.364;2022-12-18T02:59:09;92221.47;;;6.56
71807;BMP280;59655;42.590;23.364;2022-12-18T03:01:52;92219.56;;;6.56
71807;BMP280;59655;42.590;23.364;2022-12-18T03:04:30;92227.19;;;6.60
71807;BMP280;59655;42.590;23.364;2022-12-18T03:06:59;92218.53;;;6.65
71807;BMP280;59655;42.590;23.364;2022-12-18T03:09:49;92221.88;;;6.71
71807;BMP280;59655;42.590;23.364;2022-12-18T03:12:23;92231.72;;;6.70
71807;BMP280;59655;42.590;23.364;2022-12-18T03:15:15;92232.72;;;6.62
71807;BMP280;59655;42.590;23.364;2022-12-18T03:17:46;92234.88;;;6.63
71807;BMP280;59655;42.590;23.364;2022-12-18T03:20:17;92244.44;;;6.66
71807;BMP280;59655;42.590;23.364;2022-12-18T03:22:46;92245.00;;;6.42
71807;BMP280;59655;42.590;23.364;2022-12-18T03:25:16;92241.41;;;6.45
71807;BMP280;59655;42.590;23.364;2022-12-18T03:27:44;92238.78;;;6.40
71807;BMP280;59655;42.590;23.364;2022-12-18T03:30:12;92249.34;;;6.34
71807;BMP280;59655;42.590;23.364;2022-12-18T03:32:44;92252.94;;;6.37
71807;BMP280;59655;42.590;23.364;2022-12-18T03:35:14;92248.69;;;6.11
71807;BMP280;59655;42.590;23.364;2022-12-18T03:37:41;92266.13;;;6.31
71807;BMP280;59655;42.590;23.364;2022-12-18T03:40:07;92274.31;;;6.22
71807;BMP280;59655;42.590;23.364;2022-12-18T03:42:51;92277.47;;;5.86
71807;BMP280;59655;42.590;23.364;2022-12-18T03:45:41;92265.97;;;5.95
71807;BMP280;59655;42.590;23.364;2022-12-18T03:48:17;92275.53;;;5.98
71807;BMP280;59655;42.590;23.364;2022-12-18T03:51:03;92277.22;;;6.01
71807;BMP280;59655;42.590;23.364;2022-12-18T03:53:56;92274.81;;;5.98
71807;BMP280;59655;42.590;23.364;2022-12-18T03:56:26;92273.88;;;5.84
71807;BMP280;59655;42.590;23.364;2022-12-18T03:58:54;92278.69;;;5.85
71807;BMP280;59655;42.590;23.364;2022-12-18T04:01:25;92283.22;;;5.40
71807;BMP280;59655;42.590;23.364;2022-12-18T04:03:56;92290.06;;;5.03
71807;BMP280;59655;42.590;23.364;2022-12-18T04:06:24;92288.69;;;5.14
71807;BMP280;59655;42.590;23.364;2022-12-18T04:08:50;92294.19;;;5.33
71807;BMP280;59655;42.590;23.364;2022-12-18T04:11:16;92294.22;;;5.27
71807;BMP280;59655;42.590;23.364;2022-12-18T04:13:42;92302.59;;;5.54
71807;BMP280;59655;42.590;23.364;2022-12-18T04:16:08;92303.09;;;5.47
71807;BMP280;59655;42.590;23.364;2022-12-18T04:18:37;92303.31;;;5.43
71807;BMP280;59655;42.590;23.364;2022-12-18T04:21:02;92310.97;;;5.35
71807;BMP280;59655;42.590;23.364;2022-12-18T04:23:28;92317.31;;;4.95
71807;BMP280;59655;42.590;23.364;2022-12-18T04:25:54;92308.97;;;5.08
71807;BMP280;59655;42.590;23.364;2022-12-18T04:28:20;92308.25;;;5.07
71807;BMP280;59655;42.590;23.364;2022-12-18T04:30:49;92318.97;;;4.87
71807;BMP280;59655;42.590;23.364;2022-12-18T04:33:17;92314.47;;;5.04
71807;BMP280;59655;42.590;23.364;2022-12-18T04:35:43;92320.94;;;5.09
71807;BMP280;59655;42.590;23.364;2022-12-18T04:38:09;92326.00;;;5.23
71807;BMP280;59655;42.590;23.364;2022-12-18T04:40:37;92329.84;;;5.28
71807;BMP280;59655;42.590;23.364;2022-12-18T04:43:04;92328.81;;;5.03
71807;BMP280;59655;42.590;23.364;2022-12-18T04:45:30;92345.50;;;5.00
71807;BMP280;59655;42.590;23.364;2022-12-18T04:47:58;92341.13;;;4.74
71807;BMP280;59655;42.590;23.364;2022-12-18T04:50:23;92338.91;;;4.61
71807;BMP280;59655;42.590;23.364;2022-12-18T04:52:49;92341.31;;;4.65
71807;BMP280;59655;42.590;23.364;2022-12-18T04:55:14;92341.97;;;4.49
71807;BMP280;59655;42.590;23.364;2022-12-18T04:57:40;92334.06;;;4.49
71807;BMP280;59655;42.590;23.364;2022-12-18T05:00:08;92335.84;;;4.26
71807;BMP280;59655;42.590;23.364;2022-12-18T05:02:34;92353.38;;;4.46
71807;BMP280;59655;42.590;23.364;2022-12-18T05:05:01;92341.59;;;4.30
71807;BMP280;59655;42.590;23.364;2022-12-18T05:07:26;92352.63;;;4.34
71807;BMP280;59655;42.590;23.364;2022-12-18T05:09:51;92356.84;;;4.26
71807;BMP280;59655;42.590;23.364;2022-12-18T05:12:17;92365.78;;;4.39
71807;BMP280;59655;42.590;23.364;2022-12-18T05:14:42;92367.44;;;4.37
71807;BMP280;59655;42.590;23.364;2022-12-18T05:17:08;92375.66;;;4.18
71807;BMP280;59655;42.590;23.364;2022-12-18T05:19:33;92374.72;;;4.16
71807;BMP280;59655;42.590;23.364;2022-12-18T05:22:00;92372.69;;;4.05
71807;BMP280;59655;42.590;23.364;2022-12-18T05:24:26;92380.63;;;4.11
71807;BMP280;59655;42.590;23.364;2022-12-18T05:26:52;92384.69;;;4.12
71807;BMP280;59655;42.590;23.364;2022-12-18T05:29:17;92394.50;;;4.11
71807;BMP280;59655;42.590;23.364;2022-12-18T05:31:42;92409.84;;;4.24
71807;BMP280;59655;42.590;23.364;2022-12-18T05:34:08;92393.66;;;4.31
71807;BMP280;59655;42.590;23.364;2022-12-18T05:36:33;92400.41;;;4.38
71807;BMP280;59655;42.590;23.364;2022-12-18T05:38:59;92405.28;;;4.25
71807;BMP280;59655;42.590;23.364;2022-12-18T05:41:25;92402.22;;;4.26
71807;BMP280;59655;42.590;23.364;2022-12-18T05:43:51;92403.75;;;4.07
71807;BMP280;59655;42.590;23.364;2022-12-18T05:46:17;92408.22;;;4.32
71807;BMP280;59655;42.590;23.364;2022-12-18T05:48:44;92416.03;;;4.53
71807;BMP280;59655;42.590;23.364;2022-12-18T05:51:17;92415.88;;;4.68
71807;BMP280;59655;42.590;23.364;2022-12-18T05:53:47;92417.75;;;4.61
71807;BMP280;59655;42.590;23.364;2022-12-18T05:56:16;92418.81;;;4.81
71807;BMP280;59655;42.590;23.364;2022-12-18T05:58:42;92414.28;;;4.81
71807;BMP280;59655;42.590;23.364;2022-12-18T06:01:20;92416.00;;;4.90
71807;BMP280;59655;42.590;23.364;2022-12-18T06:03:46;92421.25;;;4.85
71807;BMP280;59655;42.590;23.364;2022-12-18T06:06:23;92416.50;;;5.00
71807;BMP280;59655;42.590;23.364;2022-12-18T06:08:49;92427.53;;;4.98
71807;BMP280;59655;42.590;23.364;2022-12-18T06:11:27;92431.88;;;5.07
71807;BMP280;59655;42.590;23.364;2022-12-18T06:13:56;92423.94;;;5.01
71807;BMP280;59655;42.590;23.364;2022-12-18T06:16:23;92428.94;;;4.99
71807;BMP280;59655;42.590;23.364;2022-12-18T06:18:48;92437.09;;;5.01
71807;BMP280;59655;42.590;23.364;2022-12-18T06:21:13;92439.00;;;5.01
71807;BMP280;59655;42.590;23.364;2022-12-18T06:23:39;92437.22;;;4.81
71807;BMP280;59655;42.590;23.364;2022-12-18T06:26:07;92437.97;;;4.50
71807;BMP280;59655;42.590;23.364;2022-12-18T06:28:33;92446.66;;;4.56
71807;BMP280;59655;42.590;23.364;2022-12-18T06:30:59;92444.97;;;4.58
71807;BMP280;59655;42.590;23.364;2022-12-18T06:33:28;92456.34;;;4.44
71807;BMP280;59655;42.590;23.364;2022-12-18T06:35:54;92452.16;;;4.58
71807;BMP280;59655;42.590;23.364;2022-12-18T06:38:20;92448.56;;;4.29
71807;BMP280;59655;42.590;23.364;2022-12-18T06:40:45;92459.28;;;4.26
71807;BMP280;59655;42.590;23.364;2022-12-18T06:43:10;92463.09;;;4.25
71807;BMP280;59655;42.590;23.364;2022-12-18T06:45:36;92466.47;;;4.57
71807;BMP280;59655;42.590;23.364;2022-12-18T06:48:03;92459.16;;;4.72
71807;BMP280;59655;42.590;23.364;2022-12-18T06:50:29;92462.75;;;4.69
71807;BMP280;59655;42.590;23.364;2022-12-18T06:52:56;92461.81;;;4.40
71807;BMP280;59655;42.590;23.364;2022-12-18T06:55:22;92476.94;;;4.25
71807;BMP280;59655;42.590;23.364;2022-12-18T06:57:47;92473.53;;;4.13
71807;BMP280;59655;42.590;23.364;2022-12-18T07:00:13;92482.31;;;4.36
71807;BMP280;59655;42.590;23.364;2022-12-18T07:02:38;92478.19;;;4.30
71807;BMP280;59655;42.590;23.364;2022-12-18T07:05:04;92486.22;;;4.47
71807;BMP280;59655;42.590;23.364;2022-12-18T07:07:30;92472.47;;;4.31
71807;BMP280;59655;42.590;23.364;2022-12-18T07:09:56;92480.16;;;4.35
71807;BMP280;59655;42.590;23.364;2022-12-18T07:12:22;92486.47;;;4.49
71807;BMP280;59655;42.590;23.364;2022-12-18T07:14:47;92492.72;;;4.25
71807;BMP280;59655;42.590;23.364;2022-12-18T07:17:13;92493.44;;;4.26
71807;BMP280;59655;42.590;23.364;2022-12-18T07:19:38;92500.06;;;4.21
71807;BMP280;59655;42.590;23.364;2022-12-18T07:22:03;92494.34;;;4.22
71807;BMP280;59655;42.590;23.364;2022-12-18T07:24:29;92506.59;;;4.05
71807;BMP280;59655;42.590;23.364;2022-12-18T07:26:54;92497.50;;;4.27
71807;BMP280;59655;42.590;23.364;2022-12-18T07:29:20;92502.69;;;4.21
71807;BMP280;59655;42.590;23.364;2022-12-18T07:31:45;92498.09;;;4.42
71807;BMP280;59655;42.590;23.364;2022-12-18T07:34:12;92503.13;;;4.40
71807;BMP280;59655;42.590;23.364;2022-12-18T07:36:38;92509.09;;;4.40
71807;BMP280;59655;42.590;23.364;2022-12-18T07:39:04;92502.38;;;4.66
71807;BMP280;59655;42.590;23.364;2022-12-18T07:41:29;92510.56;;;4.73
71807;BMP280;59655;42.590;23.364;2022-12-18T07:43:55;92514.31;;;4.98
71807;BMP280;59655;42.590;23.364;2022-12-18T07:46:20;92514.75;;;4.91
71807;BMP280;59655;42.590;23.364;2022-12-18T07:48:45;92523.38;;;4.97
71807;BMP280;59655;42.590;23.364;2022-12-18T07:51:11;92526.91;;;4.89
71807;BMP280;59655;42.590;23.364;2022-12-18T07:53:37;92518.84;;;4.66
71807;BMP280;59655;42.590;23.364;2022-12-18T07:56:05;92519.50;;;4.87
71807;BMP280;59655;42.590;23.364;2022-12-18T07:58:32;92524.09;;;4.92
71807;BMP280;59655;42.590;23.364;2022-12-18T08:01:08;92529.09;;;4.96
71807;BMP280;59655;42.590;23.364;2022-12-18T08:03:34;92538.09;;;4.52
71807;BMP280;59655;42.590;23.364;2022-12-18T08:06:01;92539.28;;;4.51
71807;BMP280;59655;42.590;23.364;2022-12-18T08:08:26;92546.66;;;4.26
71807;BMP280;59655;42.590;23.364;2022-12-18T08:10:52;92549.69;;;4.39
71807;BMP280;59655;42.590;23.364;2022-12-18T08:13:17;92561.13;;;4.36
71807;BMP280;59655;42.590;23.364;2022-12-18T08:15:42;92555.00;;;4.25
71807;BMP280;59655;42.590;23.364;2022-12-18T08:18:08;92561.19;;;4.21
71807;BMP280;59655;42.590;23.364;2022-12-18T08:20:33;92564.50;;;4.16
71807;BMP280;59655;42.590;23.364;2022-12-18T08:22:59;92569.03;;;4.16
71807;BMP280;59655;42.590;23.364;2022-12-18T08:25:24;92573.38;;;3.98
71807;BMP280;59655;42.590;23.364;2022-12-18T08:27:49;92571.59;;;4.10
71807;BMP280;59655;42.590;23.364;2022-12-18T08:30:15;92578.13;;;4.20
71807;BMP280;59655;42.590;23.364;2022-12-18T08:32:40;92576.72;;;4.19
71807;BMP280;59655;42.590;23.364;2022-12-18T08:35:06;92583.88;;;4.19
71807;BMP280;59655;42.590;23.364;2022-12-18T08:37:33;92584.66;;;4.05
71807;BMP280;59655;42.590;23.364;2022-12-18T08:40:00;92582.00;;;4.25
71807;BMP280;59655;42.590;23.364;2022-12-18T08:42:29;92586.09;;;4.06
71807;BMP280;59655;42.590;23.364;2022-12-18T08:45:13;92583.94;;;4.04
71807;BMP280;59655;42.590;23.364;2022-12-18T08:47:39;92580.72;;;3.94
71807;BMP280;59655;42.590;23.364;2022-12-18T08:50:05;92584.84;;;4.01
71807;BMP280;59655;42.590;23.364;2022-12-18T08:52:32;92582.47;;;4.03
71807;BMP280;59655;42.590;23.364;2022-12-18T08:54:57;92582.44;;;3.97
71807;BMP280;59655;42.590;23.364;2022-12-18T08:57:22;92591.47;;;4.17
71807;BMP280;59655;42.590;23.364;2022-12-18T08:59:48;92579.19;;;4.08
71807;BMP280;59655;42.590;23.364;2022-12-18T09:02:15;92584.47;;;4.08
71807;BMP280;59655;42.590;23.364;2022-12-18T09:04:46;92590.81;;;4.22
71807;BMP280;59655;42.590;23.364;2022-12-18T09:07:12;92588.25;;;4.07
71807;BMP280;59655;42.590;23.364;2022-12-18T09:09:38;92580.97;;;4.17
71807;BMP280;59655;42.590;23.364;2022-12-18T09:12:03;92584.78;;;4.42
71807;BMP280;59655;42.590;23.364;2022-12-18T09:14:28;92581.41;;;4.36
71807;BMP280;59655;42.590;23.364;2022-12-18T09:16:54;92579.25;;;4.34
71807;BMP280;59655;42.590;23.364;2022-12-18T09:19:19;92573.25;;;4.54
71807;BMP280;59655;42.590;23.364;2022-12-18T09:21:45;92588.16;;;4.42
71807;BMP280;59655;42.590;23.364;2022-12-18T09:24:14;92577.13;;;4.65
71807;BMP280;59655;42.590;23.364;2022-12-18T09:26:40;92579.41;;;4.77
71807;BMP280;59655;42.590;23.364;2022-12-18T09:29:05;92571.75;;;4.79
71807;BMP280;59655;42.590;23.364;2022-12-18T09:31:32;92571.56;;;4.83
71807;BMP280;59655;42.590;23.364;2022-12-18T09:33:58;92578.34;;;4.95
71807;BMP280;59655;42.590;23.364;2022-12-18T09:36:23;92579.34;;;5.03
71807;BMP280;59655;42.590;23.364;2022-12-18T09:38:49;92578.91;;;5.05
71807;BMP280;59655;42.590;23.364;2022-12-18T09:43:54;92580.25;;;5.27
71807;BMP280;59655;42.590;23.364;2022-12-18T09:46:28;92573.38;;;5.35
71807;BMP280;59655;42.590;23.364;2022-12-18T09:48:57;92583.16;;;5.34
71807;BMP280;59655;42.590;23.364;2022-12-18T09:51:28;92575.28;;;5.40
71807;BMP280;59655;42.590;23.364;2022-12-18T09:54:07;92570.66;;;5.23
71807;BMP280;59655;42.590;23.364;2022-12-18T09:56:40;92573.44;;;5.09
71807;BMP280;59655;42.590;23.364;2022-12-18T09:59:47;92580.34;;;5.06
71807;BMP280;59655;42.590;23.364;2022-12-18T10:02:14;92567.59;;;4.67
71807;BMP280;59655;42.590;23.364;2022-12-18T10:04:41;92574.16;;;4.51
71807;BMP280;59655;42.590;23.364;2022-12-18T10:07:17;92569.66;;;4.57
71807;BMP280;59655;42.590;23.364;2022-12-18T10:10:01;92570.09;;;4.82
71807;BMP280;59655;42.590;23.364;2022-12-18T10:12:41;92572.16;;;4.98
71807;BMP280;59655;42.590;23.364;2022-12-18T10:15:25;92567.47;;;5.08
71807;BMP280;59655;42.590;23.364;2022-12-18T10:18:11;92571.78;;;5.17
71807;BMP280;59655;42.590;23.364;2022-12-18T10:20:45;92570.66;;;5.23
71807;BMP280;59655;42.590;23.364;2022-12-18T10:23:28;92569.13;;;5.11
71807;BMP280;59655;42.590;23.364;2022-12-18T10:26:06;92576.78;;;5.09
71807;BMP280;59655;42.590;23.364;2022-12-18T10:28:36;92577.28;;;5.13
71807;BMP280;59655;42.590;23.364;2022-12-18T10:31:05;92574.66;;;5.13
71807;BMP280;59655;42.590;23.364;2022-12-18T10:33:33;92579.03;;;5.22
71807;BMP280;59655;42.590;23.364;2022-12-18T10:35:58;92576.97;;;5.06
71807;BMP280;59655;42.590;23.364;2022-12-18T10:38:27;92573.19;;;5.07
71807;BMP280;59655;42.590;23.364;2022-12-18T10:40:54;92570.81;;;5.09
71807;BMP280;59655;42.590;23.364;2022-12-18T10:43:37;92575.00;;;5.32
71807;BMP280;59655;42.590;23.364;2022-12-18T10:51:05;92558.69;;;5.22
71807;BMP280;59655;42.590;23.364;2022-12-18T10:53:33;92559.22;;;5.32
71807;BMP280;59655;42.590;23.364;2022-12-18T10:55:59;92560.66;;;5.28
71807;BMP280;59655;42.590;23.364;2022-12-18T10:58:29;92560.22;;;5.40
71807;BMP280;59655;42.590;23.364;2022-12-18T11:01:19;92561.38;;;5.28
71807;BMP280;59655;42.590;23.364;2022-12-18T11:03:46;92558.22;;;5.24
71807;BMP280;59655;42.590;23.364;2022-12-18T11:06:15;92554.81;;;5.12
71807;BMP280;59655;42.590;23.364;2022-12-18T11:08:41;92570.34;;;5.10
71807;BMP280;59655;42.590;23.364;2022-12-18T11:11:28;92566.09;;;4.87
71807;BMP280;59655;42.590;23.364;2022-12-18T11:14:05;92568.25;;;4.56
71807;BMP280;59655;42.590;23.364;2022-12-18T11:16:35;92576.91;;;4.36
71807;BMP280;59655;42.590;23.364;2022-12-18T11:19:21;92568.78;;;4.40
71807;BMP280;59655;42.590;23.364;2022-12-18T11:21:49;92583.97;;;4.30
71807;BMP280;59655;42.590;23.364;2022-12-18T11:24:30;92579.47;;;4.10
71807;BMP280;59655;42.590;23.364;2022-12-18T11:27:05;92574.34;;;4.01
71807;BMP280;59655;42.590;23.364;2022-12-18T11:29:34;92588.13;;;3.75
71807;BMP280;59655;42.590;23.364;2022-12-18T11:32:44;92577.97;;;4.04
71807;BMP280;59655;42.590;23.364;2022-12-18T11:40:56;92575.78;;;4.02
71807;BMP280;59655;42.590;23.364;2022-12-18T11:43:30;92577.28;;;4.09
71807;BMP280;59655;42.590;23.364;2022-12-18T11:46:02;92591.13;;;4.09
71807;BMP280;59655;42.590;23.364;2022-12-18T11:48:37;92582.09;;;4.10
71807;BMP280;59655;42.590;23.364;2022-12-18T11:51:05;92582.94;;;4.01
71807;BMP280;59655;42.590;23.364;2022-12-18T11:53:34;92581.03;;;4.02
71807;BMP280;59655;42.590;23.364;2022-12-18T12:04:08;92591.88;;;3.89
71807;BMP280;59655;42.590;23.364;2022-12-18T12:15:06;92597.00;;;3.98
71807;BMP280;59655;42.590;23.364;2022-12-18T12:23:55;92593.84;;;4.15
71807;BMP280;59655;42.590;23.364;2022-12-18T12:29:33;92598.31;;;4.29
71807;BMP280;59655;42.590;23.364;2022-12-18T12:32:17;92590.56;;;4.40
71807;BMP280;59655;42.590;23.364;2022-12-18T12:35:16;92597.25;;;4.41
71807;BMP280;59655;42.590;23.364;2022-12-18T12:40:47;92595.00;;;4.34
71807;BMP280;59655;42.590;23.364;2022-12-18T12:45:53;92590.59;;;4.46
71807;BMP280;59655;42.590;23.364;2022-12-18T12:48:36;92597.72;;;4.46
71807;BMP280;59655;42.590;23.364;2022-12-18T12:51:32;92606.56;;;4.42
71807;BMP280;59655;42.590;23.364;2022-12-18T12:54:00;92606.09;;;4.44
71807;BMP280;59655;42.590;23.364;2022-12-18T12:56:37;92609.91;;;4.43
71807;BMP280;59655;42.590;23.364;2022-12-18T13:02:28;92613.81;;;4.53
71807;BMP280;59655;42.590;23.364;2022-12-18T13:05:04;92620.09;;;4.56
71807;BMP280;59655;42.590;23.364;2022-12-18T13:07:47;92625.38;;;4.61
71807;BMP280;59655;42.590;23.364;2022-12-18T13:17:47;92623.09;;;4.75
71807;BMP280;59655;42.590;23.364;2022-12-18T13:20:14;92613.53;;;4.72
71807;BMP280;59655;42.590;23.364;2022-12-18T13:25:31;92626.97;;;4.79
71807;BMP280;59655;42.590;23.364;2022-12-18T13:38:23;92632.84;;;4.69
71807;BMP280;59655;42.590;23.364;2022-12-18T13:45:59;92643.16;;;4.46
71807;BMP280;59655;42.590;23.364;2022-12-18T13:48:27;92649.38;;;4.28
71807;BMP280;59655;42.590;23.364;2022-12-18T13:51:13;92658.69;;;4.09
71807;BMP280;59655;42.590;23.364;2022-12-18T13:53:56;92666.13;;;4.10
71807;BMP280;59655;42.590;23.364;2022-12-18T13:56:33;92671.03;;;4.03
71807;BMP280;59655;42.590;23.364;2022-12-18T13:59:15;92664.06;;;3.99
71807;BMP280;59655;42.590;23.364;2022-12-18T14:02:13;92666.38;;;4.12
71807;BMP280;59655;42.590;23.364;2022-12-18T14:04:39;92664.88;;;4.26
71807;BMP280;59655;42.590;23.364;2022-12-18T14:07:07;92665.34;;;4.45
71807;BMP280;59655;42.590;23.364;2022-12-18T14:09:36;92675.06;;;4.59
71807;BMP280;59655;42.590;23.364;2022-12-18T14:12:03;92661.81;;;4.74
71807;BMP280;59655;42.590;23.364;2022-12-18T14:14:49;92676.47;;;4.81
71807;BMP280;59655;42.590;23.364;2022-12-18T14:17:16;92677.19;;;4.81
71807;BMP280;59655;42.590;23.364;2022-12-18T14:19:49;92681.78;;;4.87
71807;BMP280;59655;42.590;23.364;2022-12-18T14:22:21;92671.47;;;4.83
71807;BMP280;59655;42.590;23.364;2022-12-18T14:25:16;92683.47;;;4.90
71807;BMP280;59655;42.590;23.364;2022-12-18T14:27:59;92675.09;;;4.65
71807;BMP280;59655;42.590;23.364;2022-12-18T14:30:46;92675.47;;;4.52
71807;BMP280;59655;42.590;23.364;2022-12-18T14:35:59;92679.06;;;4.75
71807;BMP280;59655;42.590;23.364;2022-12-18T14:41:01;92683.88;;;4.82
71807;BMP280;59655;42.590;23.364;2022-12-18T14:43:28;92695.03;;;4.51
71807;BMP280;59655;42.590;23.364;2022-12-18T14:45:55;92682.97;;;4.65
71807;BMP280;59655;42.590;23.364;2022-12-18T14:48:35;92680.41;;;4.71
71807;BMP280;59655;42.590;23.364;2022-12-18T14:51:04;92678.13;;;4.78
71807;BMP280;59655;42.590;23.364;2022-12-18T14:56:12;92679.34;;;4.57
71807;BMP280;59655;42.590;23.364;2022-12-18T14:58:38;92685.22;;;4.72
71807;BMP280;59655;42.590;23.364;2022-12-18T15:01:06;92684.97;;;4.70
71807;BMP280;59655;42.590;23.364;2022-12-18T15:03:31;92691.19;;;4.73
71807;BMP280;59655;42.590;23.364;2022-12-18T15:06:15;92689.94;;;4.68
71807;BMP280;59655;42.590;23.364;2022-12-18T15:08:42;92687.97;;;4.63
71807;BMP280;59655;42.590;23.364;2022-12-18T15:11:27;92684.19;;;4.64
71807;BMP280;59655;42.590;23.364;2022-12-18T15:13:52;92688.56;;;4.73
71807;BMP280;59655;42.590;23.364;2022-12-18T15:16:18;92691.94;;;4.73
71807;BMP280;59655;42.590;23.364;2022-12-18T15:18:44;92696.00;;;4.74
71807;BMP280;59655;42.590;23.364;2022-12-18T15:21:19;92698.88;;;4.76
71807;BMP280;59655;42.590;23.364;2022-12-18T15:23:48;92706.50;;;4.74
71807;BMP280;59655;42.590;23.364;2022-12-18T15:26:16;92711.44;;;4.67
71807;BMP280;59655;42.590;23.364;2022-12-18T15:28:48;92711.88;;;4.65
71807;BMP280;59655;42.590;23.364;2022-12-18T15:33:58;92715.22;;;4.60
71807;BMP280;59655;42.590;23.364;2022-12-18T15:36:25;92724.38;;;4.50
71807;BMP280;59655;42.590;23.364;2022-12-18T15:38:51;92714.16;;;4.52
71807;BMP280;59655;42.590;23.364;2022-12-18T15:41:19;92715.53;;;4.47
71807;BMP280;59655;42.590;23.364;2022-12-18T15:43:47;92720.41;;;4.54
71807;BMP280;59655;42.590;23.364;2022-12-18T15:46:17;92724.28;;;4.59
71807;BMP280;59655;42.590;23.364;2022-12-18T15:53:45;92724.69;;;4.52
71807;BMP280;59655;42.590;23.364;2022-12-18T15:56:12;92731.09;;;4.51
71807;BMP280;59655;42.590;23.364;2022-12-18T15:59:17;92742.13;;;4.55
71807;BMP280;59655;42.590;23.364;2022-12-18T16:01:45;92743.34;;;4.54
71807;BMP280;59655;42.590;23.364;2022-12-18T16:04:13;92748.78;;;4.50
71807;BMP280;59655;42.590;23.364;2022-12-18T16:06:40;92743.56;;;4.35
71807;BMP280;59655;42.590;23.364;2022-12-18T16:09:06;92745.59;;;3.90